ESMT

Halmstad Airport

Halmstad, Sweden
METAR ESMT 250020Z AUTO 25011KT 9999 NCD 07/05 Q1004
Observed Flight Rules
Apr-25 @ 00:20 UTC (17 minutes ago) Visual Flight Rules
Wind Visibility Clouds
250° at 11 knots 10,000+ meters
  • Clear skies
Temperatures Readings
Current 7°C / 45°F
Dewpoint 5°C / 41°F
Humidity 87%
Altimeter 29.65" Hg
Pressure 1004 hPa
Elevation 30
METAR ESMT 250020Z AUTO 25011KT 9999 NCD 07/05 Q1004
Observed Flight Rules
Apr-25 @ 00:20 UTC
(17 minutes ago)
VFR
Wind Visibility
250° at 11 knots 10,000+ meters
Clouds
  • Clear skies
Temperature Dewpoint
7°C / 45°F 5°C / 41°F
Humidity Altimeter Pressure
87% 29.65" Hg 1004 hPa